Mountain City, Georgia
Current Conditions -  °F | °C
As of 7:15 PM on Sunday 25 Jan 2015 (Local Time) from KTOC Reporting Station
Broken Clouds Broken Clouds  
Wind Chill: 49°   Ceiling: 11000
Heat Index: 49°   Visibility: 10mi
Dew Point: 34°   Wind: 0mph
Humidity: 56%   Direction: NA
Pressure: 29.76"   Gusts: NA
Location:  34.92°N, 83.39°W
Report Text: KTOC 260015Z AUTO 00000KT 10SM BKN110 09/01 A2976 RMK AO2 T00940009
Loading
Personal Weather Stations






























Interactive Weather Map New forecast layout! Learn more

10-Day Weather Forecast

Advertisements
Track Severe Weather on mobile